createdAt,value
2022-08-29T00:00:42.117Z,101891.75
2022-08-29T00:11:06.847Z,101883.84
2022-08-29T00:21:28.363Z,101873.69
2022-08-29T00:31:50.006Z,101883.25
2022-08-29T00:42:11.653Z,101889.91
2022-08-29T00:52:46.951Z,101884.06
2022-08-29T01:03:08.807Z,101874.63
2022-08-29T01:13:37.133Z,101873.25
2022-08-29T01:24:15.365Z,101887.63
2022-08-29T01:34:36.956Z,101881.47
2022-08-29T01:45:00.570Z,101882.34
2022-08-29T01:55:24.495Z,101884.47
2022-08-29T02:05:47.784Z,101886.59
2022-08-29T02:16:10.185Z,101885.09
2022-08-29T02:26:31.804Z,101872.69
2022-08-29T02:36:53.366Z,101887.94
2022-08-29T02:47:15.029Z,101878.81
2022-08-29T02:57:36.535Z,101869.31
2022-08-29T03:07:59.064Z,101868.16
2022-08-29T03:18:20.684Z,101866.41
2022-08-29T03:28:45.430Z,101854.06
2022-08-29T03:39:07.088Z,101867.69
2022-08-29T03:49:28.910Z,101870.19
2022-08-29T03:59:54.108Z,101875.84
2022-08-29T04:10:23.037Z,101874.16
2022-08-29T04:20:44.978Z,101875.53
2022-08-29T04:31:12.824Z,101887.44
2022-08-29T04:41:35.342Z,101896.06
2022-08-29T04:51:56.924Z,101895.84
2022-08-29T05:02:18.556Z,101893.56
2022-08-29T05:12:40.921Z,101900.06
2022-08-29T05:23:02.457Z,101902.88
2022-08-29T05:33:24.042Z,101924.47
2022-08-29T05:43:45.702Z,101919.00
2022-08-29T05:54:07.688Z,101915.41
2022-08-29T06:04:29.484Z,101939.13
2022-08-29T06:14:51.310Z,101934.63
2022-08-29T06:25:37.348Z,101943.38
2022-08-29T06:35:55.691Z,101954.25
2022-08-29T06:46:35.764Z,101956.44
2022-08-29T06:56:58.322Z,101950.28
2022-08-29T07:07:19.861Z,101943.84
2022-08-29T07:17:42.038Z,101950.81
2022-08-29T07:28:05.014Z,101947.25
2022-08-29T07:38:28.461Z,101954.97
2022-08-29T07:48:51.132Z,101950.78
2022-08-29T07:59:13.543Z,101953.41
2022-08-29T08:09:35.060Z,101972.31
2022-08-29T08:19:56.577Z,101972.75
2022-08-29T08:30:18.499Z,101989.38
2022-08-29T08:41:04.486Z,101981.25
2022-08-29T08:51:30.863Z,101994.19
2022-08-29T09:02:07.678Z,102005.53
2022-08-29T09:13:07.254Z,101995.66
2022-08-29T09:23:49.401Z,101992.78
2022-08-29T09:34:13.381Z,101996.84
2022-08-29T09:44:35.964Z,102000.81
2022-08-29T09:54:57.773Z,101997.47
2022-08-29T10:05:35.377Z,101989.69
2022-08-29T10:16:29.557Z,101995.34
2022-08-29T10:27:05.061Z,102010.50
2022-08-29T10:37:32.008Z,102001.38
2022-08-29T10:48:10.023Z,102005.09
2022-08-29T10:58:56.957Z,102023.84
2022-08-29T11:09:33.135Z,102030.56
2022-08-29T11:20:15.847Z,102028.69
2022-08-29T11:31:02.365Z,102022.38
2022-08-29T11:41:32.924Z,102024.63
2022-08-29T11:51:58.511Z,102019.16
2022-08-29T12:02:43.606Z,102014.38
2022-08-29T12:13:08.605Z,102016.84
2022-08-29T12:23:36.413Z,102020.72
2022-08-29T12:34:02.930Z,102007.31
2022-08-29T12:44:47.536Z,101990.13
2022-08-29T12:55:32.645Z,101987.03
2022-08-29T13:06:04.305Z,101973.63
2022-08-29T13:16:30.037Z,101981.16
2022-08-29T13:27:04.745Z,101986.91
2022-08-29T13:37:37.297Z,101970.56
2022-08-29T13:48:03.046Z,101959.38
2022-08-29T13:58:26.788Z,101968.59
2022-08-29T14:08:49.043Z,101959.13
2022-08-29T14:19:10.695Z,101957.13
2022-08-29T14:29:33.996Z,101955.50
2022-08-29T14:39:55.655Z,101954.06
2022-08-29T14:50:19.904Z,101954.63
2022-08-29T15:00:42.199Z,101965.94
2022-08-29T15:11:03.722Z,101961.75
2022-08-29T15:21:26.223Z,101959.53
2022-08-29T15:31:47.811Z,101946.53
2022-08-29T15:42:11.845Z,101946.53
2022-08-29T15:52:38.799Z,101946.81
2022-08-29T16:03:02.811Z,101950.31
2022-08-29T16:13:24.678Z,101945.13
2022-08-29T16:23:47.533Z,101928.59
2022-08-29T16:34:09.024Z,101929.75
2022-08-29T16:44:31.798Z,101924.16
2022-08-29T16:54:53.801Z,101929.22
2022-08-29T17:05:15.978Z,101922.38
2022-08-29T17:15:37.866Z,101930.63
2022-08-29T17:26:00.611Z,101920.66
2022-08-29T17:36:22.468Z,101909.59
2022-08-29T17:46:45.449Z,101914.28
2022-08-29T17:57:07.279Z,101931.53
2022-08-29T18:07:29.718Z,101942.06
2022-08-29T18:17:52.879Z,101951.94
2022-08-29T18:28:14.625Z,101962.78
2022-08-29T18:38:37.519Z,101956.06
2022-08-29T18:48:59.229Z,101961.03
2022-08-29T18:59:20.744Z,101972.13
2022-08-29T19:09:43.500Z,101982.50
2022-08-29T19:20:27.699Z,101996.09
2022-08-29T19:30:49.964Z,102006.16
2022-08-29T19:41:12.749Z,102008.38
2022-08-29T19:51:34.404Z,102015.88
2022-08-29T20:01:58.437Z,102018.50
2022-08-29T20:12:20.072Z,102022.63
2022-08-29T20:22:42.115Z,102037.28
2022-08-29T20:33:04.707Z,102040.19
2022-08-29T20:43:28.576Z,102053.41
2022-08-29T20:53:50.090Z,102060.84
2022-08-29T21:04:31.398Z,102041.84
2022-08-29T21:14:53.165Z,102040.28
2022-08-29T21:25:15.191Z,102050.25
2022-08-29T21:35:40.420Z,102057.94
2022-08-29T21:46:01.977Z,102050.91
2022-08-29T21:56:25.371Z,102048.84
2022-08-29T22:06:47.196Z,102052.78
2022-08-29T22:17:15.755Z,102053.00
2022-08-29T22:27:37.459Z,102061.34
2022-08-29T22:37:59.175Z,102061.81
2022-08-29T22:48:20.728Z,102059.38
2022-08-29T22:58:42.257Z,102062.28
2022-08-29T23:09:04.694Z,102065.19
2022-08-29T23:19:26.590Z,102066.78
2022-08-29T23:29:51.651Z,102074.94
2022-08-29T23:40:13.254Z,102073.06
2022-08-29T23:50:34.816Z,102082.44
